Time;durP1;ratioP1;P1;durP2;ratioP2;P2;SDS_P1;SDS_P2;PMS_P1;PMS_P2;Temp;Humidity;BMP_temperature;BMP_pressure;BME280_temperature;BME280_humidity;BME280_pressure;Samples;Min_cycle;Max_cycle;Signal;HPM_P1;HPM_P2
2023/03/04 00:00:11;;;;;;;;;;;;;;;-0.19;94.97;100485.67;106485;1278;24370;-56
2023/03/04 00:03:00;;;;;;;;;;;;;;;-0.18;95.26;100481.37;106461;1271;22527;-58
2023/03/04 00:05:30;;;;;;;;;;;;;;;-0.17;95.18;100474.70;106423;1275;25258;-56
2023/03/04 00:07:59;;;;;;;;;;;;;;;-0.17;95.22;100469.69;106599;1274;26178;-59
2023/03/04 00:10:28;;;;;;;;;;;;;;;-0.16;95.09;100469.83;106486;1272;25371;-58
2023/03/04 00:12:58;;;;;;;;;;;;;;;-0.16;95.14;100464.89;106527;1278;24231;-57
2023/03/04 00:15:27;;;;;;;;;;;;;;;-0.14;95.14;100463.15;106722;1271;22523;-57
2023/03/04 00:17:56;;;;;;;;;;;;;;;-0.13;95.07;100455.08;106441;1265;24248;-54
2023/03/04 00:20:25;;;;;;;;;;;;;;;-0.12;94.93;100457.35;106466;1278;26441;-57
2023/03/04 00:22:55;;;;;;;;;;;;;;;-0.11;95.02;100447.61;106497;1265;26473;-57
2023/03/04 00:25:24;;;;;;;;;;;;;;;-0.09;95.05;100449.88;106546;1272;23029;-55
2023/03/04 00:27:53;;;;;;;;;;;;;;;-0.08;95.11;100443.12;106509;1278;22516;-57
2023/03/04 00:30:22;;;;;;;;;;;;;;;-0.07;95.13;100439.97;106451;1274;26004;-58
2023/03/04 00:32:51;;;;;;;;;;;;;;;-0.05;95.09;100436.43;106474;1275;22518;-58
2023/03/04 00:35:21;;;;;;;;;;;;;;;-0.05;95.13;100432.98;106446;1278;25990;-55
2023/03/04 00:37:50;;;;;;;;;;;;;;;-0.04;95.07;100424.19;106422;1265;22520;-57
2023/03/04 00:40:19;;;;;;;;;;;;;;;-0.03;95.12;100417.98;106562;1278;22522;-57
2023/03/04 00:42:48;;;;;;;;;;;;;;;-0.02;95.14;100412.02;106556;1274;24222;-54
2023/03/04 00:45:18;;;;;;;;;;;;;;;-0.01;95.07;100405.36;106457;1271;22469;-57
2023/03/04 00:47:47;;;;;;;;;;;;;;;-0.01;95.15;100402.05;106513;1278;22515;-60
2023/03/04 00:50:17;;;;;;;;;;;;;;;0.01;95.09;100400.31;106480;1275;22540;-56
2023/03/04 00:52:46;;;;;;;;;;;;;;;0.02;95.05;100399.63;106514;1278;22511;-57
2023/03/04 00:55:15;;;;;;;;;;;;;;;0.04;95.03;100393.33;106396;1278;22625;-57
2023/03/04 00:57:44;;;;;;;;;;;;;;;0.04;94.90;100401.25;106383;1271;22566;-57
2023/03/04 01:00:15;;;;;;;;;;;;;;;0.05;94.79;100395.35;106491;1265;24394;-57
2023/03/04 01:02:44;;;;;;;;;;;;;;;0.07;94.81;100392.44;106516;1265;22575;-56
2023/03/04 01:05:13;;;;;;;;;;;;;;;0.07;94.81;100395.95;106450;1274;22934;-58
2023/03/04 01:07:43;;;;;;;;;;;;;;;0.07;94.78;100391.80;106395;1278;22536;-57
2023/03/04 01:10:14;;;;;;;;;;;;;;;0.08;94.75;100384.20;106490;1278;22500;-58
2023/03/04 01:12:43;;;;;;;;;;;;;;;0.08;94.76;100383.48;106501;1278;22507;-57
2023/03/04 01:15:14;;;;;;;;;;;;;;;0.09;94.74;100379.47;106436;1278;25474;-58
2023/03/04 01:17:44;;;;;;;;;;;;;;;0.10;94.77;100369.67;106467;1278;25756;-56
2023/03/04 01:20:14;;;;;;;;;;;;;;;0.10;94.80;100369.27;106489;1278;22503;-56
2023/03/04 01:22:44;;;;;;;;;;;;;;;0.11;94.65;100360.02;106682;1278;22509;-57
2023/03/04 01:25:13;;;;;;;;;;;;;;;0.12;94.67;100352.86;106512;1263;22559;-57
2023/03/04 01:27:42;;;;;;;;;;;;;;;0.14;94.70;100356.92;106453;1278;26520;-56
2023/03/04 01:30:12;;;;;;;;;;;;;;;0.15;94.72;100353.94;106615;1276;25299;-59
2023/03/04 01:32:41;;;;;;;;;;;;;;;0.16;94.72;100351.27;106462;1265;24851;-57
2023/03/04 01:35:11;;;;;;;;;;;;;;;0.17;94.72;100347.86;106492;1275;22515;-58
2023/03/04 01:37:40;;;;;;;;;;;;;;;0.18;94.62;100345.98;106440;1265;23117;-60
2023/03/04 01:40:11;;;;;;;;;;;;;;;0.19;94.65;100341.20;106435;1264;22513;-58
2023/03/04 01:42:40;;;;;;;;;;;;;;;0.20;94.66;100330.36;106596;1278;23876;-59
2023/03/04 01:45:13;;;;;;;;;;;;;;;0.21;94.71;100326.83;106453;1271;25341;-58
2023/03/04 01:47:47;;;;;;;;;;;;;;;0.22;94.50;100325.87;106536;1267;24233;-57
2023/03/04 01:50:19;;;;;;;;;;;;;;;0.23;94.47;100320.11;106634;1278;22502;-59
2023/03/04 01:52:48;;;;;;;;;;;;;;;0.25;94.43;100318.45;106525;1275;22758;-59
2023/03/04 01:55:18;;;;;;;;;;;;;;;0.26;94.39;100301.35;106545;1264;22501;-58
2023/03/04 01:57:49;;;;;;;;;;;;;;;0.27;94.30;100301.03;106559;1278;25542;-59
2023/03/04 02:00:25;;;;;;;;;;;;;;;0.29;94.11;100297.73;106506;1265;22623;-59
2023/03/04 02:02:55;;;;;;;;;;;;;;;0.30;93.82;100298.41;106621;1271;24922;-58
2023/03/04 02:05:24;;;;;;;;;;;;;;;0.32;93.60;100296.73;106596;1278;23302;-59
2023/03/04 02:07:55;;;;;;;;;;;;;;;0.33;93.47;100297.91;106575;1277;22535;-58
2023/03/04 02:10:24;;;;;;;;;;;;;;;0.36;93.23;100293.80;106532;1272;25283;-57
2023/03/04 02:12:54;;;;;;;;;;;;;;;0.37;93.13;100297.08;106494;1277;25445;-60
2023/03/04 02:15:23;;;;;;;;;;;;;;;0.39;93.21;100296.91;106455;1264;26122;-59
2023/03/04 02:17:52;;;;;;;;;;;;;;;0.40;93.32;100296.98;106532;1271;25318;-56
2023/03/04 02:20:28;;;;;;;;;;;;;;;0.41;93.28;100301.20;106499;1278;22767;-59
2023/03/04 02:23:01;;;;;;;;;;;;;;;0.43;92.85;100305.02;106479;1265;25322;-60
2023/03/04 02:25:33;;;;;;;;;;;;;;;0.44;92.73;100303.35;106552;1272;22726;-60
2023/03/04 02:28:02;;;;;;;;;;;;;;;0.44;92.72;100301.63;106478;1278;22515;-58
2023/03/04 02:30:32;;;;;;;;;;;;;;;0.46;92.36;100299.58;106582;1268;22525;-59
2023/03/04 02:33:01;;;;;;;;;;;;;;;0.47;92.42;100299.16;106504;1278;25588;-58
2023/03/04 02:35:30;;;;;;;;;;;;;;;0.47;92.14;100301.60;106503;1278;25402;-56
2023/03/04 02:37:59;;;;;;;;;;;;;;;0.48;92.09;100296.24;106476;1274;22583;-58
2023/03/04 02:40:29;;;;;;;;;;;;;;;0.48;91.72;100294.91;106402;1278;22561;-58
2023/03/04 02:43:00;;;;;;;;;;;;;;;0.49;91.85;100288.32;106575;1277;22629;-59
2023/03/04 02:45:37;;;;;;;;;;;;;;;0.50;92.03;100281.31;106729;1259;23031;-59
2023/03/04 02:48:07;;;;;;;;;;;;;;;0.50;91.85;100275.11;106656;1278;22502;-59
2023/03/04 02:50:39;;;;;;;;;;;;;;;0.50;91.95;100271.66;106679;1264;22554;-57
2023/03/04 02:53:08;;;;;;;;;;;;;;;0.50;91.94;100267.58;106497;1279;22501;-57
2023/03/04 02:55:37;;;;;;;;;;;;;;;0.51;91.87;100270.09;106524;1268;22499;-60
2023/03/04 02:58:06;;;;;;;;;;;;;;;0.51;91.88;100266.71;106520;1272;25403;-60
2023/03/04 03:00:36;;;;;;;;;;;;;;;0.52;91.77;100261.52;106538;1271;25455;-58
2023/03/04 03:03:05;;;;;;;;;;;;;;;0.51;91.74;100260.50;106939;1272;22765;-58
2023/03/04 03:05:35;;;;;;;;;;;;;;;0.52;91.59;100254.67;106505;1271;22495;-58
2023/03/04 03:08:05;;;;;;;;;;;;;;;0.52;91.69;100254.05;106497;1274;22617;-58
2023/03/04 03:10:34;;;;;;;;;;;;;;;0.52;91.76;100255.85;106499;1277;22462;-58
2023/03/04 03:13:03;;;;;;;;;;;;;;;0.52;91.84;100252.55;106516;1278;22580;-58
2023/03/04 03:15:32;;;;;;;;;;;;;;;0.53;91.69;100258.29;106516;1268;24203;-56
2023/03/04 03:18:02;;;;;;;;;;;;;;;0.53;91.28;100258.36;106512;1278;24263;-59
2023/03/04 03:20:31;;;;;;;;;;;;;;;0.53;91.30;100254.98;106554;1274;22657;-58
2023/03/04 03:23:00;;;;;;;;;;;;;;;0.53;91.36;100252.56;106541;1278;22513;-59
2023/03/04 03:25:29;;;;;;;;;;;;;;;0.54;91.05;100249.88;106588;1278;22617;-58
2023/03/04 03:27:59;;;;;;;;;;;;;;;0.53;90.91;100250.98;106510;1278;22474;-60
2023/03/04 03:30:28;;;;;;;;;;;;;;;0.53;90.53;100250.98;106544;1278;22583;-59
2023/03/04 03:32:57;;;;;;;;;;;;;;;0.55;90.40;100250.10;106412;1271;25352;-57
2023/03/04 03:35:26;;;;;;;;;;;;;;;0.55;90.54;100251.84;106517;1278;22507;-59
2023/03/04 03:37:55;;;;;;;;;;;;;;;0.55;90.26;100251.67;106492;1278;22520;-58
2023/03/04 03:40:25;;;;;;;;;;;;;;;0.55;90.21;100250.65;106486;1265;25447;-60
2023/03/04 03:42:54;;;;;;;;;;;;;;;0.56;90.18;100248.05;106511;1278;25319;-55
2023/03/04 03:45:23;;;;;;;;;;;;;;;0.57;89.65;100255.65;106457;1271;22502;-60
2023/03/04 03:47:52;;;;;;;;;;;;;;;0.57;89.71;100251.57;106477;1275;26087;-59
2023/03/04 03:50:21;;;;;;;;;;;;;;;0.58;89.58;100253.29;106613;1265;24396;-58
2023/03/04 03:52:51;;;;;;;;;;;;;;;0.59;89.49;100252.88;106604;1271;26634;-56
2023/03/04 03:55:20;;;;;;;;;;;;;;;0.59;89.53;100244.64;106614;1264;22469;-57
2023/03/04 03:57:49;;;;;;;;;;;;;;;0.60;89.84;100243.91;106605;1278;24233;-60
2023/03/04 04:00:19;;;;;;;;;;;;;;;0.60;89.50;100242.25;106532;1274;22551;-58
2023/03/04 04:02:49;;;;;;;;;;;;;;;0.61;89.51;100237.08;106594;1274;22501;-58
2023/03/04 04:05:18;;;;;;;;;;;;;;;0.62;89.56;100230.16;106593;1278;22505;-56
2023/03/04 04:07:47;;;;;;;;;;;;;;;0.62;89.62;100228.81;106596;1278;22497;-58
2023/03/04 04:10:17;;;;;;;;;;;;;;;0.63;89.65;100223.95;106608;1278;24316;-59
2023/03/04 04:12:46;;;;;;;;;;;;;;;0.63;89.54;100227.00;106609;1271;22499;-57
2023/03/04 04:15:16;;;;;;;;;;;;;;;0.65;89.61;100228.63;106497;1278;25334;-60
2023/03/04 04:17:45;;;;;;;;;;;;;;;0.66;89.55;100223.67;106455;1278;25402;-59
2023/03/04 04:20:14;;;;;;;;;;;;;;;0.66;89.62;100218.88;106669;1279;22514;-59
2023/03/04 04:22:43;;;;;;;;;;;;;;;0.67;89.36;100219.65;106423;1278;25330;-58
2023/03/04 04:25:12;;;;;;;;;;;;;;;0.68;89.26;100221.67;106563;1278;22666;-56
2023/03/04 04:27:42;;;;;;;;;;;;;;;0.70;89.59;100220.86;106442;1278;22467;-55
2023/03/04 04:30:12;;;;;;;;;;;;;;;0.70;89.44;100221.55;106661;1266;24262;-58
2023/03/04 04:32:41;;;;;;;;;;;;;;;0.72;89.43;100213.22;106526;1272;23327;-59
2023/03/04 04:35:11;;;;;;;;;;;;;;;0.73;89.40;100210.14;106425;1271;24775;-58
2023/03/04 04:37:40;;;;;;;;;;;;;;;0.74;89.49;100207.48;106528;1278;22784;-56
2023/03/04 04:40:10;;;;;;;;;;;;;;;0.75;89.44;100209.66;106454;1278;22469;-57
2023/03/04 04:42:39;;;;;;;;;;;;;;;0.75;89.33;100202.66;106649;1278;22501;-56
2023/03/04 04:45:10;;;;;;;;;;;;;;;0.76;89.27;100196.77;106525;1271;22582;-56
2023/03/04 04:47:39;;;;;;;;;;;;;;;0.77;89.05;100195.34;106529;1271;23147;-60
2023/03/04 04:50:09;;;;;;;;;;;;;;;0.78;88.81;100193.84;106478;1274;23170;-57
2023/03/04 04:52:38;;;;;;;;;;;;;;;0.79;88.94;100184.56;106562;1274;25240;-58
2023/03/04 04:55:09;;;;;;;;;;;;;;;0.81;88.87;100182.09;106535;1271;25214;-58
2023/03/04 04:57:38;;;;;;;;;;;;;;;0.82;88.74;100175.88;106611;1278;26210;-58
2023/03/04 05:00:08;;;;;;;;;;;;;;;0.82;88.63;100172.81;106502;1278;22526;-58
2023/03/04 05:02:38;;;;;;;;;;;;;;;0.83;88.59;100167.45;106781;1274;25441;-57
2023/03/04 05:05:08;;;;;;;;;;;;;;;0.84;88.30;100166.42;106658;1278;22464;-58
2023/03/04 05:07:38;;;;;;;;;;;;;;;0.85;88.44;100169.46;106832;1272;25406;-57
2023/03/04 05:10:08;;;;;;;;;;;;;;;0.86;88.04;100166.23;106503;1277;24805;-56
2023/03/04 05:12:37;;;;;;;;;;;;;;;0.88;88.46;100162.84;106955;1274;22512;-56
2023/03/04 05:15:07;;;;;;;;;;;;;;;0.88;88.00;100166.69;106396;1272;22584;-57
2023/03/04 05:17:36;;;;;;;;;;;;;;;0.89;88.00;100169.95;106593;1272;22553;-57
2023/03/04 05:20:07;;;;;;;;;;;;;;;0.91;88.06;100174.65;106506;1272;25693;-58
2023/03/04 05:22:37;;;;;;;;;;;;;;;0.91;87.83;100179.34;106863;1261;22501;-58
2023/03/04 05:25:07;;;;;;;;;;;;;;;0.93;87.43;100174.70;106786;1278;25405;-61
2023/03/04 05:27:36;;;;;;;;;;;;;;;0.95;87.18;100172.30;106819;1278;22512;-60
2023/03/04 05:30:07;;;;;;;;;;;;;;;0.96;87.57;100171.34;106673;1278;24314;-59
2023/03/04 05:32:36;;;;;;;;;;;;;;;0.98;87.34;100172.58;106732;1272;22614;-59
2023/03/04 05:35:06;;;;;;;;;;;;;;;0.99;87.52;100173.35;106811;1263;24194;-61
2023/03/04 05:37:36;;;;;;;;;;;;;;;1.00;87.53;100170.65;106892;1278;24202;-61
2023/03/04 05:40:06;;;;;;;;;;;;;;;1.01;87.56;100167.58;106745;1278;22516;-62
2023/03/04 05:42:35;;;;;;;;;;;;;;;1.03;87.50;100171.09;106838;1277;24165;-60
2023/03/04 05:45:05;;;;;;;;;;;;;;;1.04;87.21;100168.79;106611;1278;22507;-59
2023/03/04 05:47:34;;;;;;;;;;;;;;;1.05;87.31;100165.40;107022;1262;23879;-57
2023/03/04 05:50:04;;;;;;;;;;;;;;;1.06;87.40;100165.84;106649;1268;25276;-56
2023/03/04 05:52:33;;;;;;;;;;;;;;;1.08;87.44;100166.98;106907;1275;25402;-57
2023/03/04 05:55:03;;;;;;;;;;;;;;;1.10;87.22;100168.23;106681;1277;22639;-61
2023/03/04 05:57:32;;;;;;;;;;;;;;;1.11;87.03;100166.80;106760;1278;22548;-64
2023/03/04 06:00:04;;;;;;;;;;;;;;;1.13;87.22;100171.16;106891;1277;24153;-62
2023/03/04 06:02:33;;;;;;;;;;;;;;;1.15;86.85;100172.86;106740;1278;22659;-61
2023/03/04 06:05:03;;;;;;;;;;;;;;;1.17;86.75;100169.21;106736;1267;22692;-62
2023/03/04 06:07:32;;;;;;;;;;;;;;;1.19;86.84;100168.55;106752;1278;22506;-61
2023/03/04 06:10:01;;;;;;;;;;;;;;;1.22;86.55;100176.67;106781;1278;24179;-61
2023/03/04 06:12:30;;;;;;;;;;;;;;;1.23;86.34;100173.27;106795;1277;22614;-62
2023/03/04 06:14:59;;;;;;;;;;;;;;;1.25;86.43;100174.83;106806;1274;25095;-61
2023/03/04 06:17:28;;;;;;;;;;;;;;;1.26;86.13;100169.69;106884;1271;25615;-61
2023/03/04 06:19:57;;;;;;;;;;;;;;;1.28;86.22;100169.41;106670;1278;25260;-61
2023/03/04 06:22:27;;;;;;;;;;;;;;;1.30;86.22;100173.02;106698;1272;22491;-57
2023/03/04 06:24:56;;;;;;;;;;;;;;;1.31;85.82;100174.63;106918;1278;25399;-57
2023/03/04 06:27:25;;;;;;;;;;;;;;;1.33;85.93;100176.48;106875;1274;22502;-58
2023/03/04 06:29:55;;;;;;;;;;;;;;;1.34;85.74;100170.50;106893;1275;24707;-57
2023/03/04 06:32:25;;;;;;;;;;;;;;;1.37;85.70;100178.86;106753;1269;22511;-58
2023/03/04 06:34:54;;;;;;;;;;;;;;;1.38;85.62;100173.83;106726;1265;22648;-57
2023/03/04 06:37:24;;;;;;;;;;;;;;;1.39;85.64;100174.98;106760;1272;25378;-59
2023/03/04 06:39:53;;;;;;;;;;;;;;;1.40;85.61;100182.11;106843;1278;22513;-58
2023/03/04 06:42:23;;;;;;;;;;;;;;;1.42;85.59;100186.41;106865;1273;22516;-59
2023/03/04 06:44:52;;;;;;;;;;;;;;;1.43;85.39;100186.23;106788;1270;23475;-59
2023/03/04 06:47:22;;;;;;;;;;;;;;;1.44;85.33;100184.64;106714;1274;25329;-58
2023/03/04 06:49:51;;;;;;;;;;;;;;;1.45;85.50;100183.20;106799;1272;22561;-57
2023/03/04 06:52:20;;;;;;;;;;;;;;;1.45;85.64;100184.45;106716;1275;25356;-58
2023/03/04 06:54:50;;;;;;;;;;;;;;;1.46;85.36;100189.48;106723;1275;24309;-57
2023/03/04 06:57:19;;;;;;;;;;;;;;;1.48;85.24;100190.70;106821;1277;22821;-62
2023/03/04 06:59:48;;;;;;;;;;;;;;;1.49;85.48;100201.92;106702;1273;22806;-60
2023/03/04 07:02:18;;;;;;;;;;;;;;;1.49;85.29;100198.95;106700;1275;22501;-62
2023/03/04 07:04:48;;;;;;;;;;;;;;;1.49;85.50;100206.56;108812;1271;22563;-55
2023/03/04 07:07:17;;;;;;;;;;;;;;;1.50;85.27;100208.90;106859;1256;25630;-57
2023/03/04 07:09:46;;;;;;;;;;;;;;;1.51;85.47;100208.66;106536;1278;22561;-58
2023/03/04 07:12:15;;;;;;;;;;;;;;;1.52;85.01;100216.80;106700;1268;22513;-59
2023/03/04 07:14:44;;;;;;;;;;;;;;;1.53;85.35;100206.02;106643;1268;24589;-57
2023/03/04 07:17:14;;;;;;;;;;;;;;;1.55;85.37;100204.27;106567;1273;23901;-56
2023/03/04 07:19:43;;;;;;;;;;;;;;;1.57;85.50;100206.50;110126;1263;22501;-58
2023/03/04 07:22:12;;;;;;;;;;;;;;;1.59;85.28;100206.17;110182;1271;22485;-55
2023/03/04 07:24:41;;;;;;;;;;;;;;;1.61;85.34;100207.38;106670;1278;22509;-57
2023/03/04 07:27:11;;;;;;;;;;;;;;;1.62;85.46;100212.05;106521;1278;22504;-58
2023/03/04 07:29:40;;;;;;;;;;;;;;;1.64;85.54;100207.64;106598;1272;23979;-64
2023/03/04 07:32:10;;;;;;;;;;;;;;;1.66;85.57;100209.09;106790;1264;22500;-59
2023/03/04 07:34:39;;;;;;;;;;;;;;;1.68;85.56;100208.92;106710;1271;25450;-57
2023/03/04 07:37:08;;;;;;;;;;;;;;;1.70;85.56;100201.73;106867;1272;24166;-59
2023/03/04 07:39:38;;;;;;;;;;;;;;;1.71;85.55;100204.52;106743;1278;25840;-60
2023/03/04 07:42:07;;;;;;;;;;;;;;;1.73;85.65;100205.98;106687;1273;24225;-57
2023/03/04 07:44:36;;;;;;;;;;;;;;;1.76;85.67;100205.16;106498;1263;22522;-58
2023/03/04 07:47:05;;;;;;;;;;;;;;;1.77;85.58;100202.55;106478;1278;22726;-57
2023/03/04 07:49:35;;;;;;;;;;;;;;;1.77;85.84;100198.05;106554;1255;22714;-56
2023/03/04 07:52:04;;;;;;;;;;;;;;;1.78;85.83;100195.78;106511;1275;22611;-59
2023/03/04 07:54:34;;;;;;;;;;;;;;;1.79;86.04;100196.61;106581;1275;24242;-57
2023/03/04 07:57:03;;;;;;;;;;;;;;;1.80;86.05;100195.27;106580;1268;22529;-58
2023/03/04 07:59:32;;;;;;;;;;;;;;;1.81;86.20;100195.63;106422;1268;22502;-59
2023/03/04 08:02:01;;;;;;;;;;;;;;;1.81;86.19;100186.90;106433;1274;25469;-60
2023/03/04 08:04:31;;;;;;;;;;;;;;;1.82;86.34;100189.61;106458;1275;22509;-60
2023/03/04 08:07:00;;;;;;;;;;;;;;;1.84;86.44;100185.27;106540;1278;22520;-59
2023/03/04 08:09:30;;;;;;;;;;;;;;;1.85;86.41;100188.23;106644;1267;22521;-59
2023/03/04 08:11:59;;;;;;;;;;;;;;;1.86;86.52;100186.51;106638;1271;26217;-58
2023/03/04 08:14:28;;;;;;;;;;;;;;;1.87;86.69;100185.14;106579;1275;22924;-59
2023/03/04 08:16:57;;;;;;;;;;;;;;;1.88;86.82;100183.30;106443;1275;25288;-58
2023/03/04 08:19:27;;;;;;;;;;;;;;;1.89;86.75;100174.70;106560;1278;25386;-60
2023/03/04 08:21:56;;;;;;;;;;;;;;;1.90;86.97;100178.15;106551;1278;22613;-62
2023/03/04 08:24:25;;;;;;;;;;;;;;;1.91;87.02;100177.42;107232;1274;22507;-61
2023/03/04 08:26:55;;;;;;;;;;;;;;;1.92;87.06;100174.96;106402;1263;22681;-63
2023/03/04 08:29:24;;;;;;;;;;;;;;;1.95;87.30;100176.89;106433;1275;25281;-55
2023/03/04 08:31:54;;;;;;;;;;;;;;;1.96;87.31;100177.33;106311;1256;25496;-61
2023/03/04 08:34:28;;;;;;;;;;;;;;;1.98;87.32;100172.35;106364;1263;25329;-61
2023/03/04 08:36:57;;;;;;;;;;;;;;;1.99;87.44;100168.23;106362;1278;25318;-59
2023/03/04 08:39:26;;;;;;;;;;;;;;;1.99;87.40;100164.05;106365;1278;24266;-57
2023/03/04 08:41:56;;;;;;;;;;;;;;;2.01;87.54;100163.54;106396;1271;25627;-58
2023/03/04 08:44:25;;;;;;;;;;;;;;;2.03;87.47;100165.65;106292;1262;23160;-60
2023/03/04 08:46:54;;;;;;;;;;;;;;;2.05;87.64;100163.01;106325;1263;22593;-62
2023/03/04 08:49:23;;;;;;;;;;;;;;;2.08;87.75;100161.52;106394;1264;22528;-60
2023/03/04 08:51:53;;;;;;;;;;;;;;;2.12;87.76;100157.02;106340;1274;22502;-56
2023/03/04 08:54:22;;;;;;;;;;;;;;;2.17;87.84;100159.30;106048;1278;189661;-58
2023/03/04 08:56:51;;;;;;;;;;;;;;;2.19;87.72;100156.48;106125;1272;22707;-59
2023/03/04 08:59:20;;;;;;;;;;;;;;;2.23;87.80;100164.45;106220;1278;25441;-58
2023/03/04 09:01:50;;;;;;;;;;;;;;;2.25;87.71;100165.02;106391;1278;22650;-58
2023/03/04 09:04:19;;;;;;;;;;;;;;;2.27;87.57;100160.59;106677;1269;23147;-61
2023/03/04 09:06:48;;;;;;;;;;;;;;;2.28;87.50;100164.17;106774;1268;25266;-58
2023/03/04 09:09:18;;;;;;;;;;;;;;;2.29;87.48;100159.69;106521;1275;24217;-58
2023/03/04 09:11:47;;;;;;;;;;;;;;;2.30;87.54;100155.09;106457;1268;24195;-60
2023/03/04 09:14:16;;;;;;;;;;;;;;;2.31;87.49;100156.64;106411;1272;22505;-65
2023/03/04 09:16:45;;;;;;;;;;;;;;;2.32;87.55;100158.73;106340;1271;23609;-64
2023/03/04 09:19:14;;;;;;;;;;;;;;;2.33;87.56;100164.48;106415;1266;25034;-58
2023/03/04 09:21:44;;;;;;;;;;;;;;;2.35;87.61;100161.11;106491;1272;22501;-57
2023/03/04 09:24:13;;;;;;;;;;;;;;;2.37;87.62;100159.98;106441;1268;22504;-57
2023/03/04 09:26:42;;;;;;;;;;;;;;;2.40;87.69;100162.36;106534;1278;25335;-59
2023/03/04 09:29:11;;;;;;;;;;;;;;;2.45;87.72;100160.68;106544;1265;22536;-59
2023/03/04 09:31:40;;;;;;;;;;;;;;;2.49;87.78;100156.02;106377;1272;25492;-57
2023/03/04 09:34:10;;;;;;;;;;;;;;;2.53;87.66;100152.16;106396;1264;25375;-57
2023/03/04 09:36:39;;;;;;;;;;;;;;;2.57;87.68;100153.98;106278;1263;23026;-57
2023/03/04 09:39:08;;;;;;;;;;;;;;;2.61;87.52;100154.54;106338;1262;22518;-58
2023/03/04 09:41:40;;;;;;;;;;;;;;;2.63;87.68;100157.22;106347;1274;25461;-55
2023/03/04 09:44:13;;;;;;;;;;;;;;;2.67;87.52;100153.74;106236;1272;22504;-57
2023/03/04 09:46:44;;;;;;;;;;;;;;;2.69;87.61;100150.79;106314;1276;26568;-58
2023/03/04 09:49:14;;;;;;;;;;;;;;;2.71;87.71;100151.06;106348;1272;22621;-57
2023/03/04 09:51:48;;;;;;;;;;;;;;;2.74;87.89;100146.50;106232;1278;24217;-59
2023/03/04 09:54:23;;;;;;;;;;;;;;;2.76;87.92;100143.70;106279;1274;22512;-58
2023/03/04 09:56:57;;;;;;;;;;;;;;;2.77;88.21;100144.64;106126;1277;24028;-58
2023/03/04 09:59:30;;;;;;;;;;;;;;;2.77;88.48;100142.59;106164;1263;22561;-57
2023/03/04 10:02:00;;;;;;;;;;;;;;;2.76;88.73;100141.09;106148;1261;24268;-56
2023/03/04 10:04:34;;;;;;;;;;;;;;;2.75;88.87;100140.26;106269;1272;25608;-58
2023/03/04 10:07:05;;;;;;;;;;;;;;;2.76;89.15;100138.11;106361;1278;25465;-57
2023/03/04 10:09:42;;;;;;;;;;;;;;;2.77;89.47;100137.85;106950;1271;22469;-57
2023/03/04 10:12:13;;;;;;;;;;;;;;;2.78;89.41;100137.91;106450;1278;22507;-57
2023/03/04 10:14:45;;;;;;;;;;;;;;;2.76;89.73;100135.19;106454;1278;22503;-57
2023/03/04 10:17:18;;;;;;;;;;;;;;;2.76;89.88;100129.14;106473;1278;23395;-55
2023/03/04 10:19:55;;;;;;;;;;;;;;;2.75;90.20;100129.63;106259;1271;23030;-57
2023/03/04 10:22:27;;;;;;;;;;;;;;;2.76;90.35;100123.92;106528;1277;23407;-57
2023/03/04 10:24:57;;;;;;;;;;;;;;;2.78;90.68;100121.92;106403;1276;22505;-57
2023/03/04 10:27:28;;;;;;;;;;;;;;;2.80;90.95;100117.47;106341;1260;22629;-57
2023/03/04 10:29:59;;;;;;;;;;;;;;;2.80;91.06;100113.35;106330;1273;25549;-59
2023/03/04 10:32:29;;;;;;;;;;;;;;;2.82;91.02;100110.64;106372;1273;22515;-55
2023/03/04 10:34:58;;;;;;;;;;;;;;;2.83;91.30;100111.95;106425;1274;25268;-60
2023/03/04 10:37:42;;;;;;;;;;;;;;;2.84;91.08;100109.16;106461;1278;23007;-55
2023/03/04 10:40:19;;;;;;;;;;;;;;;2.88;91.37;100103.73;106316;1278;22921;-58
2023/03/04 10:42:50;;;;;;;;;;;;;;;2.92;91.51;100101.41;106247;1278;23027;-59
2023/03/04 10:45:24;;;;;;;;;;;;;;;2.96;91.28;100098.34;106282;1277;22625;-54
2023/03/04 10:47:54;;;;;;;;;;;;;;;2.99;91.35;100098.59;106362;1278;26331;-58
2023/03/04 10:50:24;;;;;;;;;;;;;;;3.01;91.21;100098.75;106473;1276;25446;-57
2023/03/04 10:52:54;;;;;;;;;;;;;;;3.03;90.95;100094.21;106411;1276;25625;-55
2023/03/04 10:55:26;;;;;;;;;;;;;;;3.05;91.14;100086.05;106381;1278;24385;-57
2023/03/04 10:57:56;;;;;;;;;;;;;;;3.08;91.13;100088.02;106414;1273;25441;-59
2023/03/04 11:00:27;;;;;;;;;;;;;;;3.09;90.85;100086.33;106621;1272;22561;-58
2023/03/04 11:03:20;;;;;;;;;;;;;;;3.11;90.76;100087.86;106451;1271;22657;-54
2023/03/04 11:05:49;;;;;;;;;;;;;;;3.14;90.79;100081.89;106432;1268;22480;-59
2023/03/04 11:08:19;;;;;;;;;;;;;;;3.19;91.01;100079.00;106433;1278;23246;-55
2023/03/04 11:10:51;;;;;;;;;;;;;;;3.24;91.00;100079.25;106514;1273;24247;-55
2023/03/04 11:13:21;;;;;;;;;;;;;;;3.30;90.90;100073.89;106547;1264;25375;-54
2023/03/04 11:15:52;;;;;;;;;;;;;;;3.34;90.41;100073.80;106462;1278;26256;-56
2023/03/04 11:18:26;;;;;;;;;;;;;;;3.38;90.08;100078.98;106430;1273;25380;-58
2023/03/04 11:20:58;;;;;;;;;;;;;;;3.40;90.09;100077.98;106303;1271;22505;-56
2023/03/04 11:23:32;;;;;;;;;;;;;;;3.43;90.01;100078.06;106348;1273;22527;-58
2023/03/04 11:26:03;;;;;;;;;;;;;;;3.45;89.78;100078.33;106547;1278;24911;-58
2023/03/04 11:28:37;;;;;;;;;;;;;;;3.46;89.84;100075.93;106355;1271;23112;-56
2023/03/04 11:31:12;;;;;;;;;;;;;;;3.48;89.58;100073.82;106421;1278;22514;-59
2023/03/04 11:33:45;;;;;;;;;;;;;;;3.49;89.71;100071.73;106583;1271;24291;-60
2023/03/04 11:36:23;;;;;;;;;;;;;;;3.51;89.77;100072.09;106504;1264;22708;-57
2023/03/04 11:38:52;;;;;;;;;;;;;;;3.51;90.22;100066.33;106386;1277;25540;-55
2023/03/04 11:41:24;;;;;;;;;;;;;;;3.52;90.30;100068.13;106513;1277;22711;-58
2023/03/04 11:43:53;;;;;;;;;;;;;;;3.52;90.26;100069.70;106426;1278;24226;-55
2023/03/04 11:46:34;;;;;;;;;;;;;;;3.54;90.38;100066.96;106297;1274;22502;-60
2023/03/04 11:49:14;;;;;;;;;;;;;;;3.57;90.27;100065.29;106568;1273;22557;-59
2023/03/04 11:51:49;;;;;;;;;;;;;;;3.62;90.30;100065.64;106400;1277;25299;-58
2023/03/04 11:54:24;;;;;;;;;;;;;;;3.69;90.18;100064.33;106333;1274;22505;-64
2023/03/04 11:56:56;;;;;;;;;;;;;;;3.77;90.13;100059.20;106282;1264;24200;-56
2023/03/04 11:59:37;;;;;;;;;;;;;;;3.85;89.94;100057.02;106221;1271;22757;-58
2023/03/04 12:02:13;;;;;;;;;;;;;;;3.92;89.76;100055.70;106498;1277;24252;-58
2023/03/04 12:05:01;;;;;;;;;;;;;;;3.97;89.00;100054.05;106483;1278;22625;-57
2023/03/04 12:07:43;;;;;;;;;;;;;;;4.01;88.77;100049.14;106480;1278;22786;-59
2023/03/04 12:10:20;;;;;;;;;;;;;;;4.02;88.54;100042.30;106329;1263;25512;-59
2023/03/04 12:12:57;;;;;;;;;;;;;;;4.03;88.75;100046.96;106436;1272;22514;-61
2023/03/04 12:15:29;;;;;;;;;;;;;;;4.02;88.75;100047.66;106371;1278;22524;-56
2023/03/04 12:18:11;;;;;;;;;;;;;;;4.04;88.32;100040.29;106413;1264;24289;-59
2023/03/04 12:20:45;;;;;;;;;;;;;;;4.09;88.80;100040.67;106594;1264;25429;-59
2023/03/04 12:23:22;;;;;;;;;;;;;;;4.17;88.67;100038.00;106546;1278;22930;-60
2023/03/04 12:25:56;;;;;;;;;;;;;;;4.24;88.84;100039.70;106473;1264;25423;-60
2023/03/04 12:28:50;;;;;;;;;;;;;;;4.27;88.20;100038.96;106656;1264;22522;-61
2023/03/04 12:31:37;;;;;;;;;;;;;;;4.26;88.20;100030.85;106488;1278;24879;-59
2023/03/04 12:34:27;;;;;;;;;;;;;;;4.30;88.44;100025.55;106572;1264;22545;-61
2023/03/04 12:37:04;;;;;;;;;;;;;;;4.39;88.30;100023.27;108942;1273;22512;-59
2023/03/04 12:39:33;;;;;;;;;;;;;;;4.47;87.92;100016.73;106566;1274;22507;-55
2023/03/04 12:42:08;;;;;;;;;;;;;;;4.51;87.81;100019.89;106435;1277;24310;-56
2023/03/04 12:44:42;;;;;;;;;;;;;;;4.55;87.59;100019.94;106420;1278;22518;-56
2023/03/04 12:47:17;;;;;;;;;;;;;;;4.59;87.29;100019.48;106298;1276;24248;-59
2023/03/04 12:49:51;;;;;;;;;;;;;;;4.61;87.48;100020.68;106630;1272;25431;-57
2023/03/04 12:52:27;;;;;;;;;;;;;;;4.61;87.24;100021.09;106488;1278;25401;-58